createdAt,value
2022-12-19T00:00:58.060Z,1.60
2022-12-19T00:06:14.596Z,1.77
2022-12-19T00:08:44.511Z,2.17
2022-12-19T00:11:23.052Z,1.88
2022-12-19T00:13:51.269Z,1.48
2022-12-19T00:16:28.098Z,3.17
2022-12-19T00:18:58.807Z,1.70
2022-12-19T00:21:34.804Z,1.70
2022-12-19T00:24:20.692Z,1.60
2022-12-19T00:26:50.337Z,1.63
2022-12-19T00:29:18.093Z,1.52
2022-12-19T00:31:46.064Z,1.42
2022-12-19T00:34:15.803Z,1.47
2022-12-19T00:36:46.783Z,1.75
2022-12-19T00:39:17.726Z,1.50
2022-12-19T00:41:49.736Z,1.23
2022-12-19T00:44:23.872Z,1.50
2022-12-19T00:46:54.305Z,1.63
2022-12-19T00:49:27.410Z,2.22
2022-12-19T00:52:03.257Z,2.20
2022-12-19T00:54:40.868Z,1.95
2022-12-19T00:57:09.543Z,1.42
2022-12-19T00:59:37.586Z,1.30
2022-12-19T01:02:08.432Z,1.50
2022-12-19T01:04:45.505Z,2.42
2022-12-19T01:07:15.336Z,1.95
2022-12-19T01:09:46.122Z,1.52
2022-12-19T01:21:10.729Z,1.95
2022-12-19T01:23:38.831Z,2.03
2022-12-19T01:26:15.277Z,1.60
2022-12-19T01:28:43.000Z,1.95
2022-12-19T01:31:10.851Z,1.92
2022-12-19T01:33:40.630Z,2.00
2022-12-19T01:36:17.798Z,1.92
2022-12-19T01:38:45.530Z,1.83
2022-12-19T01:41:16.244Z,2.25
2022-12-19T01:44:00.960Z,2.40
2022-12-19T01:46:39.381Z,2.40
2022-12-19T01:49:14.153Z,2.10
2022-12-19T01:51:45.761Z,2.58
2022-12-19T01:54:22.146Z,1.92
2022-12-19T01:56:52.925Z,2.38
2022-12-19T01:59:28.898Z,1.30
2022-12-19T02:02:21.068Z,2.22
2022-12-19T02:04:48.806Z,2.15
2022-12-19T02:07:18.634Z,2.28
2022-12-19T02:09:50.582Z,2.67
2022-12-19T02:12:31.254Z,2.00
2022-12-19T02:15:03.133Z,2.40
2022-12-19T02:17:42.568Z,2.70
2022-12-19T02:20:41.710Z,2.67
2022-12-19T02:23:10.421Z,2.17
2022-12-19T02:25:49.728Z,3.60
2022-12-19T02:28:43.676Z,2.30
2022-12-19T02:31:16.768Z,3.58
2022-12-19T02:34:25.646Z,2.83
2022-12-19T02:37:05.597Z,3.35
2022-12-19T02:39:39.048Z,3.25
2022-12-19T02:42:11.164Z,4.07
2022-12-19T02:44:47.746Z,2.85
2022-12-19T02:47:19.655Z,3.85
2022-12-19T02:49:48.237Z,2.42
2022-12-19T02:52:20.401Z,2.80
2022-12-19T02:54:56.001Z,3.33
2022-12-19T02:57:39.356Z,2.63
2022-12-19T03:00:16.185Z,5.22
2022-12-19T03:03:00.722Z,2.90
2022-12-19T03:05:39.611Z,2.97
2022-12-19T03:08:14.830Z,2.22
2022-12-19T03:10:49.143Z,3.00
2022-12-19T03:13:25.884Z,3.30
2022-12-19T03:15:54.186Z,3.55
2022-12-19T03:18:22.055Z,3.10
2022-12-19T03:20:52.728Z,3.10
2022-12-19T03:25:54.317Z,4.05
2022-12-19T03:28:36.702Z,4.50
2022-12-19T03:31:05.735Z,3.80
2022-12-19T03:33:45.577Z,3.72
2022-12-19T03:36:19.938Z,3.40
2022-12-19T03:38:50.274Z,3.40
2022-12-19T03:41:43.010Z,3.50
2022-12-19T03:44:16.488Z,3.58
2022-12-19T03:46:49.770Z,5.80
2022-12-19T03:49:17.539Z,4.07
2022-12-19T03:52:11.431Z,4.10
2022-12-19T03:54:42.288Z,3.85
2022-12-19T03:57:28.982Z,4.20
2022-12-19T04:00:13.838Z,4.35
2022-12-19T04:02:49.991Z,4.18
2022-12-19T04:05:34.559Z,2.72
2022-12-19T04:08:08.776Z,4.72
2022-12-19T04:10:54.167Z,3.50
2022-12-19T04:13:59.077Z,3.40
2022-12-19T04:17:04.859Z,3.25
2022-12-19T04:20:02.227Z,2.75
2022-12-19T04:22:44.333Z,2.60
2022-12-19T04:25:39.869Z,4.03
2022-12-19T04:28:39.262Z,3.40
2022-12-19T04:31:13.850Z,3.80
2022-12-19T04:33:48.507Z,3.90
2022-12-19T04:36:23.129Z,4.40
2022-12-19T04:39:01.721Z,3.60
2022-12-19T04:41:30.285Z,4.47
2022-12-19T04:43:58.370Z,4.22
2022-12-19T04:46:44.450Z,3.60
2022-12-19T04:49:12.675Z,3.33
2022-12-19T04:51:44.188Z,4.30
2022-12-19T04:54:42.425Z,2.78
2022-12-19T04:57:31.707Z,2.53
2022-12-19T05:00:25.049Z,2.60
2022-12-19T05:12:58.104Z,1.60
2022-12-19T05:16:00.663Z,4.18
2022-12-19T05:19:01.294Z,2.03
2022-12-19T05:21:52.963Z,2.72
2022-12-19T05:24:43.259Z,2.47
2022-12-19T05:27:26.138Z,2.22
2022-12-19T05:30:38.471Z,2.08
2022-12-19T05:33:33.750Z,2.47
2022-12-19T05:36:24.518Z,1.90
2022-12-19T05:39:16.515Z,1.90
2022-12-19T05:42:43.388Z,2.28
2022-12-19T05:45:51.101Z,2.53
2022-12-19T05:48:48.136Z,2.17
2022-12-19T05:51:21.070Z,2.03
2022-12-19T05:54:18.524Z,2.17
2022-12-19T05:56:50.514Z,2.20
2022-12-19T05:59:30.782Z,3.63
2022-12-19T06:02:15.442Z,3.03
2022-12-19T06:04:49.185Z,3.20
2022-12-19T06:07:23.452Z,2.20
2022-12-19T06:09:57.919Z,3.15
2022-12-19T06:12:40.161Z,2.20
2022-12-19T06:15:26.256Z,2.08
2022-12-19T06:18:42.892Z,1.77
2022-12-19T06:21:29.120Z,1.40
2022-12-19T06:24:10.279Z,3.72
2022-12-19T06:26:49.074Z,2.40
2022-12-19T06:32:13.704Z,2.80
2022-12-19T06:41:32.729Z,3.85
2022-12-19T06:47:20.643Z,3.03
2022-12-19T06:50:57.451Z,4.47
2022-12-19T07:06:11.072Z,3.38
2022-12-19T07:31:57.721Z,2.50
2022-12-19T07:34:33.671Z,2.00
2022-12-19T07:37:28.288Z,2.10
2022-12-19T07:44:47.861Z,2.45
2022-12-19T07:51:14.424Z,3.75
2022-12-19T07:54:59.026Z,1.70
2022-12-19T07:58:17.702Z,2.47
2022-12-19T08:05:44.372Z,2.60
2022-12-19T08:08:34.136Z,2.25
2022-12-19T08:14:32.379Z,3.45
2022-12-19T08:47:53.598Z,3.53
2022-12-19T08:50:40.949Z,2.45
2022-12-19T08:53:21.424Z,3.97
2022-12-19T08:56:11.980Z,3.08
2022-12-19T08:58:54.885Z,3.33
2022-12-19T09:01:25.970Z,3.60
2022-12-19T09:05:57.342Z,4.10
2022-12-19T09:07:15.261Z,3.00
2022-12-19T09:09:48.648Z,3.75
2022-12-19T09:12:28.308Z,3.83
2022-12-19T09:14:59.601Z,2.47
2022-12-19T09:18:00.584Z,4.00
2022-12-19T09:20:49.828Z,4.50
2022-12-19T09:23:21.651Z,2.78
2022-12-19T09:26:32.965Z,3.25
2022-12-19T09:29:12.696Z,3.38
2022-12-19T09:31:57.171Z,2.22
2022-12-19T09:34:37.871Z,3.72
2022-12-19T09:37:09.175Z,4.25
2022-12-19T09:39:50.810Z,2.97
2022-12-19T09:46:24.947Z,2.88
2022-12-19T09:47:21.264Z,3.22
2022-12-19T09:49:54.203Z,3.38
2022-12-19T09:52:36.600Z,3.58
2022-12-19T09:55:33.826Z,2.05
2022-12-19T09:58:28.878Z,1.88
2022-12-19T10:01:29.660Z,2.05
2022-12-19T10:04:21.789Z,2.22
2022-12-19T10:07:40.109Z,2.50
2022-12-19T10:15:32.668Z,2.60
2022-12-19T10:18:18.257Z,4.03
2022-12-19T10:21:19.466Z,2.55
2022-12-19T10:24:26.701Z,3.85
2022-12-19T10:27:04.507Z,2.63
2022-12-19T10:30:05.570Z,3.45
2022-12-19T10:33:20.739Z,3.22
2022-12-19T10:36:11.192Z,3.30
2022-12-19T10:39:34.487Z,3.65
2022-12-19T10:42:19.537Z,3.63
2022-12-19T10:44:52.795Z,2.83
2022-12-19T10:47:25.398Z,3.70
2022-12-19T10:49:56.779Z,3.25
2022-12-19T10:52:56.967Z,5.30
2022-12-19T10:55:41.201Z,3.58
2022-12-19T10:58:21.768Z,3.60
2022-12-19T11:01:29.221Z,4.10
2022-12-19T11:04:35.543Z,3.25
2022-12-19T11:12:19.922Z,2.75
2022-12-19T11:21:56.584Z,2.60
2022-12-19T11:30:05.777Z,3.35
2022-12-19T11:30:46.430Z,2.55
2022-12-19T11:34:35.841Z,2.20
2022-12-19T11:37:46.730Z,2.60
2022-12-19T11:40:49.861Z,2.78
2022-12-19T11:43:46.652Z,2.38
2022-12-19T11:46:48.187Z,2.75
2022-12-19T11:49:49.132Z,2.88
2022-12-19T11:56:20.256Z,3.63
2022-12-19T11:58:53.535Z,3.58
2022-12-19T12:01:55.395Z,3.97
2022-12-19T12:05:08.723Z,4.43
2022-12-19T12:08:49.384Z,3.47
2022-12-19T12:13:55.267Z,3.90
2022-12-19T12:25:33.996Z,4.65
2022-12-19T12:31:04.170Z,4.35
2022-12-19T12:31:08.449Z,4.23
2022-12-19T12:31:18.626Z,3.45
2022-12-19T12:31:42.137Z,4.25
2022-12-19T12:31:43.907Z,4.03
2022-12-19T12:35:56.940Z,5.22
2022-12-19T12:40:23.745Z,5.15
2022-12-19T12:43:08.694Z,3.80
2022-12-19T12:45:45.033Z,2.92
2022-12-19T12:48:58.507Z,6.22
2022-12-19T12:51:39.580Z,3.72
2022-12-19T12:54:26.479Z,4.03
2022-12-19T12:57:02.456Z,3.20
2022-12-19T12:59:39.120Z,3.78
2022-12-19T13:02:24.917Z,3.75
2022-12-19T13:05:01.243Z,5.95
2022-12-19T13:07:45.393Z,4.05
2022-12-19T13:10:16.100Z,4.18
2022-12-19T13:13:26.198Z,3.25
2022-12-19T13:16:00.397Z,4.00
2022-12-19T13:18:34.375Z,3.63
2022-12-19T13:21:10.554Z,3.33
2022-12-19T13:23:45.853Z,3.30
2022-12-19T13:26:44.019Z,3.78
2022-12-19T13:29:34.255Z,3.33
2022-12-19T13:32:15.967Z,3.03
2022-12-19T13:35:12.752Z,3.13
2022-12-19T13:40:01.200Z,4.07
2022-12-19T13:41:23.808Z,4.68
2022-12-19T13:43:56.651Z,4.93
2022-12-19T13:46:35.011Z,4.10
2022-12-19T13:49:09.791Z,5.40
2022-12-19T13:51:57.101Z,4.43
2022-12-19T13:54:38.162Z,2.95
2022-12-19T13:57:32.231Z,2.88
2022-12-19T14:00:21.081Z,4.78
2022-12-19T14:03:11.883Z,3.45
2022-12-19T14:06:17.386Z,3.72
2022-12-19T14:08:34.151Z,3.85
2022-12-19T14:11:45.810Z,3.58
2022-12-19T14:14:27.284Z,3.65
2022-12-19T14:17:05.334Z,3.07
2022-12-19T14:19:40.520Z,2.90
2022-12-19T14:23:15.028Z,3.83
2022-12-19T14:28:21.948Z,2.63
2022-12-19T14:30:27.277Z,3.47
2022-12-19T14:33:47.187Z,2.90
2022-12-19T14:36:21.405Z,3.60
2022-12-19T14:39:23.670Z,4.45
2022-12-19T14:42:07.273Z,3.75
2022-12-19T14:52:51.478Z,3.67
2022-12-19T14:54:10.514Z,3.22
2022-12-19T14:54:33.979Z,3.67
2022-12-19T14:56:54.188Z,4.38
2022-12-19T14:59:06.413Z,3.55
2022-12-19T15:01:36.605Z,3.95
2022-12-19T15:04:50.342Z,2.78
2022-12-19T15:07:22.067Z,3.30
2022-12-19T15:11:08.833Z,4.22
2022-12-19T15:14:54.922Z,3.50
2022-12-19T15:16:30.789Z,4.00
2022-12-19T15:19:01.783Z,3.03
2022-12-19T15:21:31.600Z,3.08
2022-12-19T15:24:03.053Z,4.60
2022-12-19T15:26:35.273Z,5.18
2022-12-19T15:29:14.165Z,3.17
2022-12-19T15:31:48.437Z,3.17
2022-12-19T15:37:18.874Z,3.75
2022-12-19T15:39:46.614Z,2.47
2022-12-19T15:42:27.946Z,3.15
2022-12-19T15:45:38.419Z,2.20
2022-12-19T15:48:38.417Z,3.53
2022-12-19T15:51:21.391Z,3.25
2022-12-19T15:54:15.566Z,3.03
2022-12-19T15:56:52.202Z,3.25
2022-12-19T15:59:38.814Z,4.03
2022-12-19T16:03:20.581Z,4.00
2022-12-19T16:05:56.845Z,3.10
2022-12-19T16:08:38.247Z,3.75
2022-12-19T16:11:38.201Z,3.92
2022-12-19T16:14:12.484Z,4.32
2022-12-19T16:16:41.327Z,4.65
2022-12-19T16:19:38.948Z,4.35
2022-12-19T16:22:45.203Z,5.50
2022-12-19T16:25:25.173Z,5.88
2022-12-19T16:28:03.599Z,4.00
2022-12-19T16:30:35.807Z,4.55
2022-12-19T16:33:03.821Z,4.68
2022-12-19T16:36:03.191Z,5.15
2022-12-19T16:38:36.457Z,5.38
2022-12-19T16:41:04.573Z,6.13
2022-12-19T16:43:43.724Z,4.93
2022-12-19T16:46:18.353Z,5.25
2022-12-19T16:48:50.676Z,5.25
2022-12-19T16:51:38.976Z,4.65
2022-12-19T16:54:06.825Z,7.10
2022-12-19T16:56:43.756Z,5.85
2022-12-19T16:59:29.801Z,6.77
2022-12-19T17:02:01.635Z,5.43
2022-12-19T17:04:42.016Z,4.90
2022-12-19T17:07:12.050Z,5.55
2022-12-19T17:09:47.665Z,6.53
2022-12-19T17:12:19.216Z,6.13
2022-12-19T17:15:04.140Z,7.30
2022-12-19T17:18:35.488Z,5.10
2022-12-19T17:21:15.447Z,6.50
2022-12-19T17:23:47.710Z,7.28
2022-12-19T17:26:25.767Z,5.78
2022-12-19T17:28:57.232Z,4.57
2022-12-19T17:31:39.989Z,5.72
2022-12-19T17:34:41.369Z,7.20
2022-12-19T17:37:22.076Z,5.20
2022-12-19T17:42:45.133Z,4.78
2022-12-19T17:45:29.854Z,7.15
2022-12-19T17:48:12.382Z,4.70
2022-12-19T17:50:56.395Z,5.65
2022-12-19T17:53:24.820Z,4.88
2022-12-19T17:56:07.214Z,6.22
2022-12-19T17:58:59.867Z,6.50
2022-12-19T18:01:37.114Z,5.32
2022-12-19T18:04:09.755Z,6.60
2022-12-19T18:06:38.475Z,6.13
2022-12-19T18:09:11.069Z,5.78
2022-12-19T18:11:51.019Z,4.63
2022-12-19T18:14:28.334Z,5.85
2022-12-19T18:17:20.777Z,6.28
2022-12-19T18:20:04.907Z,7.93
2022-12-19T18:22:49.160Z,7.05
2022-12-19T18:25:28.384Z,6.55
2022-12-19T18:27:56.547Z,7.30
2022-12-19T18:30:25.866Z,6.93
2022-12-19T18:33:03.635Z,7.00
2022-12-19T18:35:40.751Z,6.25
2022-12-19T18:38:13.307Z,5.30
2022-12-19T18:40:47.139Z,5.72
2022-12-19T18:43:16.729Z,4.75
2022-12-19T18:45:51.039Z,5.43
2022-12-19T18:48:21.593Z,5.47
2022-12-19T18:53:22.238Z,6.07
2022-12-19T18:55:51.450Z,5.97
2022-12-19T18:58:20.829Z,5.93
2022-12-19T19:00:50.177Z,6.90
2022-12-19T19:03:23.148Z,6.90
2022-12-19T19:05:51.221Z,8.32
2022-12-19T19:08:38.427Z,6.50
2022-12-19T19:11:30.040Z,7.60
2022-12-19T19:13:57.866Z,6.28
2022-12-19T19:16:27.207Z,6.05
2022-12-19T19:18:57.386Z,5.57
2022-12-19T19:21:38.063Z,8.25
2022-12-19T19:24:21.076Z,6.13
2022-12-19T19:26:49.927Z,6.53
2022-12-19T19:29:19.804Z,5.03
2022-12-19T19:31:50.695Z,5.22
2022-12-19T19:34:27.206Z,4.70
2022-12-19T19:36:59.877Z,5.97
2022-12-19T19:39:48.900Z,5.55
2022-12-19T19:42:18.964Z,5.70
2022-12-19T19:45:07.294Z,6.45
2022-12-19T19:47:38.487Z,5.78
2022-12-19T19:50:12.252Z,6.28
2022-12-19T19:52:42.748Z,6.15
2022-12-19T19:55:11.229Z,5.68
2022-12-19T19:57:39.201Z,5.78
2022-12-19T20:00:09.169Z,5.50
2022-12-19T20:02:43.286Z,5.90
2022-12-19T20:05:11.880Z,4.65
2022-12-19T20:07:39.586Z,5.55
2022-12-19T20:10:08.896Z,5.35
2022-12-19T20:12:36.877Z,5.93
2022-12-19T20:15:05.282Z,5.03
2022-12-19T20:17:33.412Z,6.50
2022-12-19T20:20:01.311Z,7.28
2022-12-19T20:23:30.965Z,5.63
2022-12-19T20:26:05.487Z,6.32
2022-12-19T20:28:34.181Z,4.75
2022-12-19T20:31:02.576Z,5.88
2022-12-19T20:33:30.530Z,5.15
2022-12-19T20:36:04.740Z,6.38
2022-12-19T20:38:32.445Z,5.40
2022-12-19T20:41:00.353Z,5.25
2022-12-19T20:43:28.259Z,4.97
2022-12-19T20:46:08.704Z,5.65
2022-12-19T20:51:06.120Z,4.88
2022-12-19T20:53:35.795Z,5.82
2022-12-19T20:56:05.752Z,7.07
2022-12-19T20:58:36.144Z,6.50
2022-12-19T21:01:18.372Z,6.38
2022-12-19T21:03:48.082Z,6.43
2022-12-19T21:06:18.781Z,5.70
2022-12-19T21:08:47.299Z,4.78
2022-12-19T21:11:16.005Z,4.38
2022-12-19T21:13:44.157Z,4.95
2022-12-19T21:16:14.550Z,5.55
2022-12-19T21:18:45.665Z,5.47
2022-12-19T21:21:20.639Z,5.57
2022-12-19T21:23:49.176Z,7.07
2022-12-19T21:28:47.165Z,4.50
2022-12-19T21:31:25.291Z,6.05
2022-12-19T21:34:13.206Z,4.20
2022-12-19T21:36:44.470Z,6.10
2022-12-19T21:39:15.246Z,5.05
2022-12-19T21:41:52.809Z,5.28
2022-12-19T21:44:25.857Z,3.65
2022-12-19T21:47:04.712Z,3.92
2022-12-19T21:49:48.830Z,4.57
2022-12-19T21:52:19.273Z,5.45
2022-12-19T21:55:13.621Z,4.50
2022-12-19T21:58:04.861Z,4.00
2022-12-19T22:00:39.025Z,4.78
2022-12-19T22:03:51.804Z,6.03
2022-12-19T22:06:32.019Z,4.13
2022-12-19T22:09:00.681Z,4.10
2022-12-19T22:11:32.280Z,6.35
2022-12-19T22:14:02.689Z,3.83
2022-12-19T22:16:35.537Z,5.43
2022-12-19T22:19:07.499Z,3.45
2022-12-19T22:21:39.354Z,5.38
2022-12-19T22:24:07.460Z,5.30
2022-12-19T22:26:35.690Z,4.95
2022-12-19T22:29:07.510Z,4.65
2022-12-19T22:31:37.051Z,5.22
2022-12-19T22:34:10.461Z,5.43
2022-12-19T22:36:40.796Z,4.18
2022-12-19T22:39:11.825Z,3.67
2022-12-19T22:41:40.596Z,4.72
2022-12-19T22:44:14.924Z,3.67
2022-12-19T22:46:42.871Z,5.93
2022-12-19T22:49:12.556Z,4.95
2022-12-19T22:51:41.175Z,4.53
2022-12-19T22:54:12.402Z,5.13
2022-12-19T22:56:42.821Z,4.60
2022-12-19T22:59:11.789Z,4.60
2022-12-19T23:01:43.781Z,4.60
2022-12-19T23:04:14.235Z,4.38
2022-12-19T23:06:42.381Z,3.85
2022-12-19T23:09:13.838Z,4.43
2022-12-19T23:11:46.044Z,3.78
2022-12-19T23:14:16.469Z,4.82
2022-12-19T23:16:45.206Z,3.90
2022-12-19T23:19:15.173Z,3.17
2022-12-19T23:21:42.896Z,3.30
2022-12-19T23:24:11.860Z,3.30
2022-12-19T23:26:39.724Z,3.55
2022-12-19T23:29:16.559Z,4.18
2022-12-19T23:31:46.305Z,5.00
2022-12-19T23:34:15.930Z,4.20
2022-12-19T23:39:31.517Z,4.72
2022-12-19T23:41:59.265Z,4.72
2022-12-19T23:44:27.165Z,3.58
2022-12-19T23:47:02.367Z,4.00
2022-12-19T23:49:32.324Z,2.70
2022-12-19T23:52:00.134Z,4.22
2022-12-19T23:54:28.137Z,2.95
2022-12-19T23:56:55.688Z,7.88
2022-12-19T23:59:23.355Z,3.25
